• Join FlightAware (Why Join?)
  • Login
  • US Flag 
01:50AM EST


 

Airport Tracker/Info


-or-


 

Live Flight TrackerFlight Track Log ✈ UCA596 ✈ 17-Aug-2014 ✈ KEWR - KBGM

Flight Track Log - Related Links

Times and Time Zones

All times are in EDT time to prevent confusion due to time zone crossing. See the UCA596 flight status page for this flight to view local times or setup timezone preferences in your user account.

Time Position Orientation Groundspeed Altitude Reporting Facility
EDT Latitude Longitude Course Direction KTS MPH feet Rate Location/Type
10:09AM 40.6500 -74.1833 303° West 151 174 1,800  Level New York TRACON
10:10AM 40.6667 -74.2167 303° West 174 200 3,100 1,500 Climbing New York TRACON
10:13AM 40.7744 -74.2703 339° North 175 201 7,100 1,500 Climbing New York Center
10:14AM 40.8114 -74.2886 339° North 169 194 8,500 1,500 Climbing New York Center
10:15AM 40.8631 -74.2969 353° North 164 189 10,100 780 Climbing New York Center
10:16AM 40.9128 -74.3050 353° North 176 203 10,100 780 Level New York Center
10:17AM 40.9769 -74.3247 347° North 208 239 11,800 960 Climbing New York Center
10:18AM 41.0264 -74.3383 348° North 208 239 12,100 60 Climbing New York Center
10:19AM 41.0897 -74.3775 335° Northwest 220 253 12,000 -60 Descending New York Center
10:20AM 41.1339 -74.4378 314° West 226 260 12,000  Level New York Center
10:21AM 41.1778 -74.5008 313° West 226 260 12,000  Level New York Center
10:22AM 41.2217 -74.5611 314° West 226 260 12,100  Climbing New York Center
10:23AM 41.2617 -74.6131 316° Northwest 226 260 12,100 -120 Level New York Center
10:24AM 41.3092 -74.6819 313° West 220 253 11,900 -120 Descending New York Center
10:25AM 41.3469 -74.7367 313° West 227 261 11,900  Level New York Center
10:26AM 41.3947 -74.8031 314° West 221 254 11,900  Level New York Center
10:27AM 41.4344 -74.8608 313° West 221 254 11,900  Level New York Center
10:28AM 41.4861 -74.9306 315° West 226 260 12,000  Climbing New York Center
10:29AM 41.5258 -74.9883 313° West 226 260 12,000 -180 Level New York Center
10:30AM 41.5692 -75.0522 312° West 226 260 11,700 -720 Descending New York Center
10:31AM 41.6208 -75.1247 314° West 239 275 10,600 -900 Descending New York Center
10:32AM 41.6681 -75.1944 312° West 244 281 10,000 -600 Descending New York Center
10:33AM 41.7136 -75.2614 312° West 244 281 9,500 -600 Descending New York Center
10:34AM 41.7550 -75.3197 314° West 244 281 8,900 -1,020 Descending New York Center
10:35AM 41.8022 -75.3925 311° West 244 281 7,600 -1,320 Descending New York Center
10:36AM 41.8456 -75.4542 313° West 239 275 6,400 -1,140 Descending New York Center
10:37AM 41.8889 -75.5156 313° West 234 269 5,300 -720 Descending New York Center
10:38AM 41.9264 -75.5711 312° West 229 264 5,000 -180 Descending New York Center
10:39AM 41.9675 -75.6328 312° West 224 258 5,000 -120 Level New York Center
10:40AM 42.0064 -75.6969 309° West 219 252 4,800 -540 Descending New York Center
10:41AM 42.0133 -75.7842 276° West 224 258 4,000 -420 Descending New York Center
10:42AM 42.0481 -75.8453 307° West 206 237 4,000  Level New York Center
10:43AM 42.0881 -75.8847 324° Northwest 193 222 4,000 -420 Level New York Center
10:44AM 42.1264 -75.9158 329° Northwest 178 205 3,200 -720 Descending New York Center
10:45AM 42.1567 -75.9375 332° Northwest 149 171 2,600 -660 Descending New York Center
10:46AM 42.1847 -75.9622 327° Northwest 123 142 2,000 3,180 Descending New York Center
10:47AM 42.2189 -75.9900 329° Northwest 123 142 9,000 6,720 Climbing New York Center
10:49AM 42.2084 -75.9796 144° Southeast  Level Estimated